sensor_id;sensor_type;location;lat;lon;timestamp;P1;durP1;ratioP1;P2;durP2;ratioP2
23888;SDS011;12125;40.102;18.326;2022-08-18T00:00:53;17.90;;;14.68;;
23888;SDS011;12125;40.102;18.326;2022-08-18T00:03:23;17.98;;;14.77;;
23888;SDS011;12125;40.102;18.326;2022-08-18T00:05:49;15.82;;;13.70;;
23888;SDS011;12125;40.102;18.326;2022-08-18T00:08:16;21.08;;;14.32;;
23888;SDS011;12125;40.102;18.326;2022-08-18T00:10:43;24.35;;;16.75;;
23888;SDS011;12125;40.102;18.326;2022-08-18T00:13:10;18.77;;;15.65;;
23888;SDS011;12125;40.102;18.326;2022-08-18T00:15:38;45.92;;;15.77;;
23888;SDS011;12125;40.102;18.326;2022-08-18T00:18:05;20.13;;;15.38;;
23888;SDS011;12125;40.102;18.326;2022-08-18T00:20:31;38.80;;;18.25;;
23888;SDS011;12125;40.102;18.326;2022-08-18T00:22:58;29.30;;;17.52;;
23888;SDS011;12125;40.102;18.326;2022-08-18T00:25:25;23.92;;;17.90;;
23888;SDS011;12125;40.102;18.326;2022-08-18T00:27:51;18.38;;;15.40;;
23888;SDS011;12125;40.102;18.326;2022-08-18T00:30:19;32.88;;;16.65;;
23888;SDS011;12125;40.102;18.326;2022-08-18T00:32:48;22.95;;;17.08;;
23888;SDS011;12125;40.102;18.326;2022-08-18T00:35:16;21.85;;;18.08;;
23888;SDS011;12125;40.102;18.326;2022-08-18T00:37:45;20.27;;;17.35;;
23888;SDS011;12125;40.102;18.326;2022-08-18T00:40:21;21.05;;;17.55;;
23888;SDS011;12125;40.102;18.326;2022-08-18T00:42:49;19.73;;;17.23;;
23888;SDS011;12125;40.102;18.326;2022-08-18T00:45:18;24.15;;;17.48;;
23888;SDS011;12125;40.102;18.326;2022-08-18T00:47:47;19.92;;;17.10;;
23888;SDS011;12125;40.102;18.326;2022-08-18T00:50:17;26.80;;;15.93;;
23888;SDS011;12125;40.102;18.326;2022-08-18T00:52:49;36.75;;;17.60;;
23888;SDS011;12125;40.102;18.326;2022-08-18T00:55:28;25.15;;;17.13;;
23888;SDS011;12125;40.102;18.326;2022-08-18T00:58:04;23.35;;;16.73;;
23888;SDS011;12125;40.102;18.326;2022-08-18T01:00:33;19.98;;;16.17;;
23888;SDS011;12125;40.102;18.326;2022-08-18T01:03:02;19.55;;;16.52;;
23888;SDS011;12125;40.102;18.326;2022-08-18T01:05:53;18.52;;;16.02;;
23888;SDS011;12125;40.102;18.326;2022-08-18T01:08:17;22.08;;;17.70;;
23888;SDS011;12125;40.102;18.326;2022-08-18T01:10:44;18.30;;;14.35;;
23888;SDS011;12125;40.102;18.326;2022-08-18T01:13:11;18.48;;;15.63;;
23888;SDS011;12125;40.102;18.326;2022-08-18T01:15:40;22.92;;;16.95;;
23888;SDS011;12125;40.102;18.326;2022-08-18T01:18:12;18.75;;;16.77;;
23888;SDS011;12125;40.102;18.326;2022-08-18T01:23:43;21.55;;;15.48;;
23888;SDS011;12125;40.102;18.326;2022-08-18T01:26:13;19.25;;;14.38;;
23888;SDS011;12125;40.102;18.326;2022-08-18T01:28:42;17.67;;;15.98;;
23888;SDS011;12125;40.102;18.326;2022-08-18T01:31:10;19.92;;;15.45;;
23888;SDS011;12125;40.102;18.326;2022-08-18T01:33:40;23.17;;;16.45;;
23888;SDS011;12125;40.102;18.326;2022-08-18T01:36:15;19.42;;;17.45;;
23888;SDS011;12125;40.102;18.326;2022-08-18T01:38:46;21.63;;;17.27;;
23888;SDS011;12125;40.102;18.326;2022-08-18T01:41:18;19.30;;;17.23;;
23888;SDS011;12125;40.102;18.326;2022-08-18T01:43:50;19.83;;;17.67;;
23888;SDS011;12125;40.102;18.326;2022-08-18T01:46:24;24.33;;;18.20;;
23888;SDS011;12125;40.102;18.326;2022-08-18T01:48:50;21.02;;;18.75;;
23888;SDS011;12125;40.102;18.326;2022-08-18T01:51:19;23.27;;;18.40;;
23888;SDS011;12125;40.102;18.326;2022-08-18T01:53:48;27.90;;;22.02;;
23888;SDS011;12125;40.102;18.326;2022-08-18T01:56:27;24.08;;;19.63;;
23888;SDS011;12125;40.102;18.326;2022-08-18T01:58:54;28.25;;;19.42;;
23888;SDS011;12125;40.102;18.326;2022-08-18T02:01:21;26.27;;;21.42;;
23888;SDS011;12125;40.102;18.326;2022-08-18T02:03:51;24.02;;;20.52;;
23888;SDS011;12125;40.102;18.326;2022-08-18T02:06:19;22.35;;;19.67;;
23888;SDS011;12125;40.102;18.326;2022-08-18T02:08:47;24.88;;;21.40;;
23888;SDS011;12125;40.102;18.326;2022-08-18T02:11:14;20.63;;;17.30;;
23888;SDS011;12125;40.102;18.326;2022-08-18T02:13:41;26.27;;;20.00;;
23888;SDS011;12125;40.102;18.326;2022-08-18T02:16:16;23.85;;;20.75;;
23888;SDS011;12125;40.102;18.326;2022-08-18T02:18:53;31.40;;;22.67;;
23888;SDS011;12125;40.102;18.326;2022-08-18T02:21:19;29.73;;;22.75;;
23888;SDS011;12125;40.102;18.326;2022-08-18T02:23:48;28.58;;;22.52;;
23888;SDS011;12125;40.102;18.326;2022-08-18T02:26:16;29.98;;;24.38;;
23888;SDS011;12125;40.102;18.326;2022-08-18T02:28:44;26.75;;;22.65;;
23888;SDS011;12125;40.102;18.326;2022-08-18T02:31:15;22.23;;;19.98;;
23888;SDS011;12125;40.102;18.326;2022-08-18T02:33:43;33.22;;;24.52;;
23888;SDS011;12125;40.102;18.326;2022-08-18T02:36:10;27.52;;;22.48;;
23888;SDS011;12125;40.102;18.326;2022-08-18T02:38:42;27.98;;;23.17;;
23888;SDS011;12125;40.102;18.326;2022-08-18T02:43:38;24.17;;;21.27;;
23888;SDS011;12125;40.102;18.326;2022-08-18T02:46:06;29.90;;;22.23;;
23888;SDS011;12125;40.102;18.326;2022-08-18T02:48:33;26.88;;;22.50;;
23888;SDS011;12125;40.102;18.326;2022-08-18T02:51:07;25.63;;;20.85;;
23888;SDS011;12125;40.102;18.326;2022-08-18T02:53:35;23.20;;;20.20;;
23888;SDS011;12125;40.102;18.326;2022-08-18T02:56:09;26.85;;;21.50;;
23888;SDS011;12125;40.102;18.326;2022-08-18T02:58:59;22.33;;;19.13;;
23888;SDS011;12125;40.102;18.326;2022-08-18T03:01:27;23.70;;;20.48;;
23888;SDS011;12125;40.102;18.326;2022-08-18T03:03:54;25.75;;;20.50;;
23888;SDS011;12125;40.102;18.326;2022-08-18T03:06:22;23.48;;;21.02;;
23888;SDS011;12125;40.102;18.326;2022-08-18T03:08:49;25.00;;;20.20;;
23888;SDS011;12125;40.102;18.326;2022-08-18T03:11:17;25.60;;;20.23;;
23888;SDS011;12125;40.102;18.326;2022-08-18T03:13:45;21.85;;;18.48;;
23888;SDS011;12125;40.102;18.326;2022-08-18T03:16:11;24.52;;;18.75;;
23888;SDS011;12125;40.102;18.326;2022-08-18T03:18:41;21.80;;;18.38;;
23888;SDS011;12125;40.102;18.326;2022-08-18T03:21:12;27.45;;;21.77;;
23888;SDS011;12125;40.102;18.326;2022-08-18T03:23:39;20.83;;;18.70;;
23888;SDS011;12125;40.102;18.326;2022-08-18T03:26:12;22.15;;;19.73;;
23888;SDS011;12125;40.102;18.326;2022-08-18T03:28:40;22.30;;;20.00;;
23888;SDS011;12125;40.102;18.326;2022-08-18T03:31:08;19.17;;;16.88;;
23888;SDS011;12125;40.102;18.326;2022-08-18T03:33:36;19.45;;;17.40;;
23888;SDS011;12125;40.102;18.326;2022-08-18T03:36:04;20.25;;;16.48;;
23888;SDS011;12125;40.102;18.326;2022-08-18T03:38:31;22.33;;;18.95;;
23888;SDS011;12125;40.102;18.326;2022-08-18T03:40:58;22.17;;;19.20;;
23888;SDS011;12125;40.102;18.326;2022-08-18T03:43:25;23.75;;;18.35;;
23888;SDS011;12125;40.102;18.326;2022-08-18T03:45:53;31.60;;;19.80;;
23888;SDS011;12125;40.102;18.326;2022-08-18T03:48:21;19.77;;;17.67;;
23888;SDS011;12125;40.102;18.326;2022-08-18T03:50:49;18.77;;;16.80;;
23888;SDS011;12125;40.102;18.326;2022-08-18T03:53:16;21.77;;;18.13;;
23888;SDS011;12125;40.102;18.326;2022-08-18T03:55:43;23.42;;;19.25;;
23888;SDS011;12125;40.102;18.326;2022-08-18T03:58:10;22.98;;;18.38;;
23888;SDS011;12125;40.102;18.326;2022-08-18T04:00:38;26.33;;;20.77;;
23888;SDS011;12125;40.102;18.326;2022-08-18T04:03:05;25.50;;;18.35;;
23888;SDS011;12125;40.102;18.326;2022-08-18T04:05:32;23.25;;;19.23;;
23888;SDS011;12125;40.102;18.326;2022-08-18T04:07:59;26.70;;;18.45;;
23888;SDS011;12125;40.102;18.326;2022-08-18T04:10:29;22.13;;;19.38;;
23888;SDS011;12125;40.102;18.326;2022-08-18T04:12:56;19.88;;;17.90;;
23888;SDS011;12125;40.102;18.326;2022-08-18T04:15:24;21.65;;;17.42;;
23888;SDS011;12125;40.102;18.326;2022-08-18T04:17:51;20.55;;;18.45;;
23888;SDS011;12125;40.102;18.326;2022-08-18T04:20:19;20.10;;;17.70;;
23888;SDS011;12125;40.102;18.326;2022-08-18T04:22:46;25.80;;;18.27;;
23888;SDS011;12125;40.102;18.326;2022-08-18T04:25:19;20.48;;;18.02;;
23888;SDS011;12125;40.102;18.326;2022-08-18T04:27:59;20.83;;;17.55;;
23888;SDS011;12125;40.102;18.326;2022-08-18T04:30:28;21.95;;;18.95;;
23888;SDS011;12125;40.102;18.326;2022-08-18T04:32:55;21.95;;;17.42;;
23888;SDS011;12125;40.102;18.326;2022-08-18T04:35:25;18.70;;;16.58;;
23888;SDS011;12125;40.102;18.326;2022-08-18T04:37:54;19.48;;;17.00;;
23888;SDS011;12125;40.102;18.326;2022-08-18T04:40:24;21.67;;;19.05;;
23888;SDS011;12125;40.102;18.326;2022-08-18T04:42:52;28.05;;;21.67;;
23888;SDS011;12125;40.102;18.326;2022-08-18T04:45:20;19.95;;;17.90;;
23888;SDS011;12125;40.102;18.326;2022-08-18T04:47:47;24.13;;;19.90;;
23888;SDS011;12125;40.102;18.326;2022-08-18T04:50:15;23.17;;;19.02;;
23888;SDS011;12125;40.102;18.326;2022-08-18T04:52:42;22.15;;;19.95;;
23888;SDS011;12125;40.102;18.326;2022-08-18T04:55:27;29.67;;;20.77;;
23888;SDS011;12125;40.102;18.326;2022-08-18T04:57:54;24.48;;;18.00;;
23888;SDS011;12125;40.102;18.326;2022-08-18T05:00:22;19.20;;;17.20;;
23888;SDS011;12125;40.102;18.326;2022-08-18T05:02:49;21.92;;;19.65;;
23888;SDS011;12125;40.102;18.326;2022-08-18T05:05:19;21.25;;;19.10;;
23888;SDS011;12125;40.102;18.326;2022-08-18T05:07:46;20.25;;;17.38;;
23888;SDS011;12125;40.102;18.326;2022-08-18T05:10:13;20.70;;;18.50;;
23888;SDS011;12125;40.102;18.326;2022-08-18T05:12:42;22.52;;;19.75;;
23888;SDS011;12125;40.102;18.326;2022-08-18T05:15:09;20.13;;;17.90;;
23888;SDS011;12125;40.102;18.326;2022-08-18T05:17:36;18.90;;;15.60;;
23888;SDS011;12125;40.102;18.326;2022-08-18T05:20:07;19.27;;;16.20;;
23888;SDS011;12125;40.102;18.326;2022-08-18T05:22:38;26.40;;;17.30;;
23888;SDS011;12125;40.102;18.326;2022-08-18T05:25:06;42.55;;;18.23;;
23888;SDS011;12125;40.102;18.326;2022-08-18T05:27:37;19.48;;;17.33;;
23888;SDS011;12125;40.102;18.326;2022-08-18T05:30:13;19.45;;;16.38;;
23888;SDS011;12125;40.102;18.326;2022-08-18T05:32:55;17.80;;;15.48;;
23888;SDS011;12125;40.102;18.326;2022-08-18T05:35:24;16.73;;;15.00;;
23888;SDS011;12125;40.102;18.326;2022-08-18T05:40:19;15.25;;;13.02;;
23888;SDS011;12125;40.102;18.326;2022-08-18T05:42:49;16.63;;;14.40;;
23888;SDS011;12125;40.102;18.326;2022-08-18T05:45:17;14.85;;;12.75;;
23888;SDS011;12125;40.102;18.326;2022-08-18T05:47:44;15.32;;;11.35;;
23888;SDS011;12125;40.102;18.326;2022-08-18T05:50:12;14.25;;;12.65;;
23888;SDS011;12125;40.102;18.326;2022-08-18T05:52:48;11.93;;;10.73;;
23888;SDS011;12125;40.102;18.326;2022-08-18T05:55:22;16.70;;;11.68;;
23888;SDS011;12125;40.102;18.326;2022-08-18T05:58:14;10.68;;;9.57;;
23888;SDS011;12125;40.102;18.326;2022-08-18T06:00:47;10.40;;;9.27;;
23888;SDS011;12125;40.102;18.326;2022-08-18T06:03:25;9.98;;;8.75;;
23888;SDS011;12125;40.102;18.326;2022-08-18T06:05:58;9.80;;;8.80;;
23888;SDS011;12125;40.102;18.326;2022-08-18T06:08:35;11.13;;;8.17;;
23888;SDS011;12125;40.102;18.326;2022-08-18T06:11:04;19.70;;;9.27;;
23888;SDS011;12125;40.102;18.326;2022-08-18T06:13:34;10.55;;;7.38;;
23888;SDS011;12125;40.102;18.326;2022-08-18T06:18:46;10.15;;;7.28;;
23888;SDS011;12125;40.102;18.326;2022-08-18T06:24:05;8.43;;;6.43;;
23888;SDS011;12125;40.102;18.326;2022-08-18T06:26:55;9.00;;;6.93;;
23888;SDS011;12125;40.102;18.326;2022-08-18T06:32:08;8.43;;;6.53;;
23888;SDS011;12125;40.102;18.326;2022-08-18T06:37:29;7.10;;;6.03;;
23888;SDS011;12125;40.102;18.326;2022-08-18T06:39:56;8.57;;;6.47;;
23888;SDS011;12125;40.102;18.326;2022-08-18T06:42:24;8.23;;;6.38;;
23888;SDS011;12125;40.102;18.326;2022-08-18T06:45:02;10.52;;;6.72;;
23888;SDS011;12125;40.102;18.326;2022-08-18T06:47:34;6.88;;;5.72;;
23888;SDS011;12125;40.102;18.326;2022-08-18T06:50:03;9.23;;;6.13;;
23888;SDS011;12125;40.102;18.326;2022-08-18T06:52:32;12.75;;;5.85;;
23888;SDS011;12125;40.102;18.326;2022-08-18T06:55:01;8.77;;;6.05;;
23888;SDS011;12125;40.102;18.326;2022-08-18T06:57:30;7.13;;;5.90;;
23888;SDS011;12125;40.102;18.326;2022-08-18T07:00:09;9.50;;;5.85;;
23888;SDS011;12125;40.102;18.326;2022-08-18T07:02:47;6.68;;;5.65;;
23888;SDS011;12125;40.102;18.326;2022-08-18T07:05:17;9.60;;;6.45;;
23888;SDS011;12125;40.102;18.326;2022-08-18T07:07:45;8.68;;;6.57;;
23888;SDS011;12125;40.102;18.326;2022-08-18T07:12:39;9.30;;;5.68;;
23888;SDS011;12125;40.102;18.326;2022-08-18T07:15:06;7.80;;;6.30;;
23888;SDS011;12125;40.102;18.326;2022-08-18T07:17:36;8.48;;;5.97;;
23888;SDS011;12125;40.102;18.326;2022-08-18T07:22:53;9.73;;;6.53;;
23888;SDS011;12125;40.102;18.326;2022-08-18T07:25:22;8.60;;;5.50;;
23888;SDS011;12125;40.102;18.326;2022-08-18T07:27:49;9.65;;;5.80;;
23888;SDS011;12125;40.102;18.326;2022-08-18T07:30:25;8.60;;;6.38;;
23888;SDS011;12125;40.102;18.326;2022-08-18T07:35:23;9.77;;;6.65;;
23888;SDS011;12125;40.102;18.326;2022-08-18T07:37:52;8.38;;;6.15;;
23888;SDS011;12125;40.102;18.326;2022-08-18T07:40:38;8.88;;;5.82;;
23888;SDS011;12125;40.102;18.326;2022-08-18T07:43:13;9.95;;;5.95;;
23888;SDS011;12125;40.102;18.326;2022-08-18T07:45:44;8.30;;;5.65;;
23888;SDS011;12125;40.102;18.326;2022-08-18T07:48:18;8.73;;;5.40;;
23888;SDS011;12125;40.102;18.326;2022-08-18T07:55:46;12.52;;;4.82;;
23888;SDS011;12125;40.102;18.326;2022-08-18T08:00:54;9.85;;;5.72;;
23888;SDS011;12125;40.102;18.326;2022-08-18T08:03:37;10.25;;;5.47;;
23888;SDS011;12125;40.102;18.326;2022-08-18T08:08:38;10.48;;;5.60;;
23888;SDS011;12125;40.102;18.326;2022-08-18T08:11:14;10.25;;;4.95;;
23888;SDS011;12125;40.102;18.326;2022-08-18T08:13:49;6.90;;;4.07;;
23888;SDS011;12125;40.102;18.326;2022-08-18T08:16:27;7.43;;;4.45;;
23888;SDS011;12125;40.102;18.326;2022-08-18T08:21:52;7.40;;;4.97;;
23888;SDS011;12125;40.102;18.326;2022-08-18T08:24:58;8.45;;;4.38;;
23888;SDS011;12125;40.102;18.326;2022-08-18T08:29:52;12.23;;;4.82;;
23888;SDS011;12125;40.102;18.326;2022-08-18T08:32:31;5.97;;;3.55;;
23888;SDS011;12125;40.102;18.326;2022-08-18T08:35:01;10.88;;;3.78;;
23888;SDS011;12125;40.102;18.326;2022-08-18T08:37:40;10.85;;;3.78;;
23888;SDS011;12125;40.102;18.326;2022-08-18T08:40:17;11.23;;;3.90;;
23888;SDS011;12125;40.102;18.326;2022-08-18T08:45:13;13.55;;;3.97;;
23888;SDS011;12125;40.102;18.326;2022-08-18T08:47:44;8.73;;;4.05;;
23888;SDS011;12125;40.102;18.326;2022-08-18T08:52:45;7.18;;;3.50;;
23888;SDS011;12125;40.102;18.326;2022-08-18T09:00:38;10.55;;;4.40;;
23888;SDS011;12125;40.102;18.326;2022-08-18T09:03:17;7.40;;;4.03;;
23888;SDS011;12125;40.102;18.326;2022-08-18T09:05:53;8.50;;;3.60;;
23888;SDS011;12125;40.102;18.326;2022-08-18T09:12:00;7.30;;;3.97;;
23888;SDS011;12125;40.102;18.326;2022-08-18T09:17:15;6.65;;;3.72;;
23888;SDS011;12125;40.102;18.326;2022-08-18T09:22:50;8.57;;;3.90;;
23888;SDS011;12125;40.102;18.326;2022-08-18T09:25:32;9.48;;;4.00;;
23888;SDS011;12125;40.102;18.326;2022-08-18T09:28:06;7.70;;;3.90;;
23888;SDS011;12125;40.102;18.326;2022-08-18T09:33:29;21.50;;;7.60;;
23888;SDS011;12125;40.102;18.326;2022-08-18T09:38:48;8.07;;;3.70;;
23888;SDS011;12125;40.102;18.326;2022-08-18T09:42:27;7.03;;;3.50;;
23888;SDS011;12125;40.102;18.326;2022-08-18T09:47:11;7.88;;;4.50;;
23888;SDS011;12125;40.102;18.326;2022-08-18T09:54:58;6.93;;;3.58;;
23888;SDS011;12125;40.102;18.326;2022-08-18T09:57:26;10.75;;;4.25;;
23888;SDS011;12125;40.102;18.326;2022-08-18T09:59:55;4.35;;;3.35;;
23888;SDS011;12125;40.102;18.326;2022-08-18T10:05:36;4.88;;;3.60;;
23888;SDS011;12125;40.102;18.326;2022-08-18T10:07:48;5.70;;;3.40;;
23888;SDS011;12125;40.102;18.326;2022-08-18T10:12:51;5.53;;;3.38;;
23888;SDS011;12125;40.102;18.326;2022-08-18T10:15:46;5.95;;;3.50;;
23888;SDS011;12125;40.102;18.326;2022-08-18T10:21:13;6.47;;;3.63;;
23888;SDS011;12125;40.102;18.326;2022-08-18T10:23:45;6.30;;;3.55;;
23888;SDS011;12125;40.102;18.326;2022-08-18T10:29:05;5.18;;;2.95;;
23888;SDS011;12125;40.102;18.326;2022-08-18T10:37:12;7.65;;;3.90;;
23888;SDS011;12125;40.102;18.326;2022-08-18T10:40:27;6.28;;;3.63;;
23888;SDS011;12125;40.102;18.326;2022-08-18T10:45:44;7.25;;;3.83;;
23888;SDS011;12125;40.102;18.326;2022-08-18T10:47:57;6.47;;;3.55;;
23888;SDS011;12125;40.102;18.326;2022-08-18T10:50:24;5.45;;;3.60;;
23888;SDS011;12125;40.102;18.326;2022-08-18T10:52:57;7.82;;;4.25;;
23888;SDS011;12125;40.102;18.326;2022-08-18T11:00:42;8.88;;;3.53;;
23888;SDS011;12125;40.102;18.326;2022-08-18T11:03:18;8.38;;;4.47;;
23888;SDS011;12125;40.102;18.326;2022-08-18T11:05:49;5.78;;;4.07;;
23888;SDS011;12125;40.102;18.326;2022-08-18T11:08:27;11.93;;;4.43;;
23888;SDS011;12125;40.102;18.326;2022-08-18T11:10:53;5.57;;;3.65;;
23888;SDS011;12125;40.102;18.326;2022-08-18T11:13:23;6.65;;;3.28;;
23888;SDS011;12125;40.102;18.326;2022-08-18T11:18:27;7.28;;;3.80;;
23888;SDS011;12125;40.102;18.326;2022-08-18T11:24:00;5.78;;;3.53;;
23888;SDS011;12125;40.102;18.326;2022-08-18T11:26:28;6.10;;;3.95;;
23888;SDS011;12125;40.102;18.326;2022-08-18T11:28:56;5.60;;;4.05;;
23888;SDS011;12125;40.102;18.326;2022-08-18T11:31:23;5.22;;;4.20;;
23888;SDS011;12125;40.102;18.326;2022-08-18T11:33:50;8.50;;;4.18;;
23888;SDS011;12125;40.102;18.326;2022-08-18T11:36:27;10.27;;;4.43;;
23888;SDS011;12125;40.102;18.326;2022-08-18T11:38:55;5.57;;;3.60;;
23888;SDS011;12125;40.102;18.326;2022-08-18T11:41:38;9.55;;;4.32;;
23888;SDS011;12125;40.102;18.326;2022-08-18T11:44:46;6.20;;;3.38;;
23888;SDS011;12125;40.102;18.326;2022-08-18T11:47:22;7.40;;;3.75;;
23888;SDS011;12125;40.102;18.326;2022-08-18T11:49:51;8.35;;;4.05;;
23888;SDS011;12125;40.102;18.326;2022-08-18T11:52:26;6.68;;;4.38;;
23888;SDS011;12125;40.102;18.326;2022-08-18T11:55:01;7.93;;;4.30;;
23888;SDS011;12125;40.102;18.326;2022-08-18T11:59:56;6.80;;;4.13;;
23888;SDS011;12125;40.102;18.326;2022-08-18T12:02:23;6.45;;;3.67;;
23888;SDS011;12125;40.102;18.326;2022-08-18T12:04:51;5.47;;;3.45;;
23888;SDS011;12125;40.102;18.326;2022-08-18T12:07:26;8.20;;;3.83;;
23888;SDS011;12125;40.102;18.326;2022-08-18T12:12:47;7.25;;;3.90;;
23888;SDS011;12125;40.102;18.326;2022-08-18T12:17:42;5.28;;;3.80;;
23888;SDS011;12125;40.102;18.326;2022-08-18T12:20:10;10.65;;;7.15;;
23888;SDS011;12125;40.102;18.326;2022-08-18T12:22:39;33.17;;;25.25;;
23888;SDS011;12125;40.102;18.326;2022-08-18T12:25:10;12.93;;;7.87;;
23888;SDS011;12125;40.102;18.326;2022-08-18T12:27:38;7.22;;;5.88;;
23888;SDS011;12125;40.102;18.326;2022-08-18T12:30:07;39.45;;;33.40;;
23888;SDS011;12125;40.102;18.326;2022-08-18T12:32:35;6.13;;;4.80;;
23888;SDS011;12125;40.102;18.326;2022-08-18T12:35:03;7.25;;;3.15;;
23888;SDS011;12125;40.102;18.326;2022-08-18T12:37:31;4.70;;;3.55;;
23888;SDS011;12125;40.102;18.326;2022-08-18T12:39:58;5.45;;;3.40;;
23888;SDS011;12125;40.102;18.326;2022-08-18T12:42:26;6.72;;;3.47;;
23888;SDS011;12125;40.102;18.326;2022-08-18T12:44:52;4.40;;;3.40;;
23888;SDS011;12125;40.102;18.326;2022-08-18T12:47:20;5.85;;;3.47;;
23888;SDS011;12125;40.102;18.326;2022-08-18T12:49:47;7.15;;;3.70;;
23888;SDS011;12125;40.102;18.326;2022-08-18T12:52:14;6.03;;;3.15;;
23888;SDS011;12125;40.102;18.326;2022-08-18T12:54:41;7.45;;;3.67;;
23888;SDS011;12125;40.102;18.326;2022-08-18T12:57:10;7.63;;;4.00;;
23888;SDS011;12125;40.102;18.326;2022-08-18T12:59:39;6.18;;;3.03;;
23888;SDS011;12125;40.102;18.326;2022-08-18T13:02:05;5.35;;;3.35;;
23888;SDS011;12125;40.102;18.326;2022-08-18T13:04:35;3.97;;;3.50;;
23888;SDS011;12125;40.102;18.326;2022-08-18T13:07:02;6.63;;;3.42;;
23888;SDS011;12125;40.102;18.326;2022-08-18T13:09:30;5.55;;;3.60;;
23888;SDS011;12125;40.102;18.326;2022-08-18T13:12:02;10.07;;;3.50;;
23888;SDS011;12125;40.102;18.326;2022-08-18T13:14:32;7.32;;;3.45;;
23888;SDS011;12125;40.102;18.326;2022-08-18T13:16:59;6.03;;;3.45;;
23888;SDS011;12125;40.102;18.326;2022-08-18T13:19:26;6.25;;;3.80;;
23888;SDS011;12125;40.102;18.326;2022-08-18T13:25:29;7.90;;;3.75;;
23888;SDS011;12125;40.102;18.326;2022-08-18T13:27:56;6.03;;;3.28;;
23888;SDS011;12125;40.102;18.326;2022-08-18T13:30:23;8.48;;;3.70;;
23888;SDS011;12125;40.102;18.326;2022-08-18T13:32:50;7.28;;;3.72;;
23888;SDS011;12125;40.102;18.326;2022-08-18T13:35:16;6.05;;;3.95;;
23888;SDS011;12125;40.102;18.326;2022-08-18T13:37:43;6.10;;;3.78;;
23888;SDS011;12125;40.102;18.326;2022-08-18T13:40:11;5.55;;;4.05;;
23888;SDS011;12125;40.102;18.326;2022-08-18T13:42:43;6.07;;;4.32;;
23888;SDS011;12125;40.102;18.326;2022-08-18T13:45:11;9.23;;;4.07;;
23888;SDS011;12125;40.102;18.326;2022-08-18T13:47:38;7.30;;;4.00;;
23888;SDS011;12125;40.102;18.326;2022-08-18T13:50:05;7.70;;;4.47;;
23888;SDS011;12125;40.102;18.326;2022-08-18T13:52:32;5.70;;;3.67;;
23888;SDS011;12125;40.102;18.326;2022-08-18T13:54:59;9.48;;;4.28;;
23888;SDS011;12125;40.102;18.326;2022-08-18T13:57:27;10.30;;;3.95;;
23888;SDS011;12125;40.102;18.326;2022-08-18T13:59:56;6.70;;;3.95;;
23888;SDS011;12125;40.102;18.326;2022-08-18T14:02:23;6.78;;;3.90;;
23888;SDS011;12125;40.102;18.326;2022-08-18T14:04:50;6.40;;;4.25;;
23888;SDS011;12125;40.102;18.326;2022-08-18T14:07:20;6.22;;;4.00;;
23888;SDS011;12125;40.102;18.326;2022-08-18T14:09:48;7.22;;;3.83;;
23888;SDS011;12125;40.102;18.326;2022-08-18T14:12:18;8.88;;;4.13;;
23888;SDS011;12125;40.102;18.326;2022-08-18T14:14:46;9.68;;;4.80;;
23888;SDS011;12125;40.102;18.326;2022-08-18T14:17:14;7.25;;;4.18;;
23888;SDS011;12125;40.102;18.326;2022-08-18T14:19:41;10.80;;;4.57;;
23888;SDS011;12125;40.102;18.326;2022-08-18T14:22:26;10.73;;;4.43;;
23888;SDS011;12125;40.102;18.326;2022-08-18T14:25:12;8.93;;;4.30;;
23888;SDS011;12125;40.102;18.326;2022-08-18T14:27:58;8.75;;;4.28;;
23888;SDS011;12125;40.102;18.326;2022-08-18T14:30:25;9.63;;;3.65;;
23888;SDS011;12125;40.102;18.326;2022-08-18T14:32:52;6.30;;;3.47;;
23888;SDS011;12125;40.102;18.326;2022-08-18T14:35:19;10.90;;;4.45;;
23888;SDS011;12125;40.102;18.326;2022-08-18T14:37:47;12.60;;;3.97;;
23888;SDS011;12125;40.102;18.326;2022-08-18T14:40:15;6.93;;;4.30;;
23888;SDS011;12125;40.102;18.326;2022-08-18T14:42:45;9.07;;;3.80;;
23888;SDS011;12125;40.102;18.326;2022-08-18T14:45:12;10.05;;;4.15;;
23888;SDS011;12125;40.102;18.326;2022-08-18T14:47:40;8.10;;;3.88;;
23888;SDS011;12125;40.102;18.326;2022-08-18T14:50:08;12.25;;;4.30;;
23888;SDS011;12125;40.102;18.326;2022-08-18T14:52:39;7.82;;;4.50;;
23888;SDS011;12125;40.102;18.326;2022-08-18T14:55:07;8.10;;;3.95;;
23888;SDS011;12125;40.102;18.326;2022-08-18T14:57:37;7.45;;;4.05;;
23888;SDS011;12125;40.102;18.326;2022-08-18T15:00:06;6.80;;;4.32;;
23888;SDS011;12125;40.102;18.326;2022-08-18T15:02:45;10.00;;;4.22;;
23888;SDS011;12125;40.102;18.326;2022-08-18T15:05:14;8.13;;;4.47;;
23888;SDS011;12125;40.102;18.326;2022-08-18T15:07:41;5.88;;;3.60;;
23888;SDS011;12125;40.102;18.326;2022-08-18T15:10:08;7.25;;;4.22;;
23888;SDS011;12125;40.102;18.326;2022-08-18T15:12:36;6.78;;;4.28;;
23888;SDS011;12125;40.102;18.326;2022-08-18T15:15:04;8.88;;;4.50;;
23888;SDS011;12125;40.102;18.326;2022-08-18T15:17:33;8.25;;;4.35;;
23888;SDS011;12125;40.102;18.326;2022-08-18T15:20:03;7.15;;;3.72;;
23888;SDS011;12125;40.102;18.326;2022-08-18T15:22:29;10.50;;;4.40;;
23888;SDS011;12125;40.102;18.326;2022-08-18T15:25:15;10.40;;;4.60;;
23888;SDS011;12125;40.102;18.326;2022-08-18T15:28:00;11.10;;;4.10;;
23888;SDS011;12125;40.102;18.326;2022-08-18T15:30:27;7.90;;;3.95;;
23888;SDS011;12125;40.102;18.326;2022-08-18T15:32:54;8.15;;;4.10;;
23888;SDS011;12125;40.102;18.326;2022-08-18T15:35:22;8.45;;;4.18;;
23888;SDS011;12125;40.102;18.326;2022-08-18T15:37:49;8.80;;;4.10;;
23888;SDS011;12125;40.102;18.326;2022-08-18T15:40:17;8.85;;;3.95;;
23888;SDS011;12125;40.102;18.326;2022-08-18T15:42:46;16.95;;;4.07;;
23888;SDS011;12125;40.102;18.326;2022-08-18T15:45:21;6.85;;;3.92;;
23888;SDS011;12125;40.102;18.326;2022-08-18T15:47:52;12.00;;;4.72;;
23888;SDS011;12125;40.102;18.326;2022-08-18T15:50:20;12.07;;;4.72;;
23888;SDS011;12125;40.102;18.326;2022-08-18T15:52:48;16.83;;;4.80;;
23888;SDS011;12125;40.102;18.326;2022-08-18T15:55:16;11.23;;;4.70;;
23888;SDS011;12125;40.102;18.326;2022-08-18T15:57:43;8.10;;;4.40;;
23888;SDS011;12125;40.102;18.326;2022-08-18T16:00:10;8.35;;;3.90;;
23888;SDS011;12125;40.102;18.326;2022-08-18T16:02:37;21.33;;;4.30;;
23888;SDS011;12125;40.102;18.326;2022-08-18T16:05:05;10.57;;;3.90;;
23888;SDS011;12125;40.102;18.326;2022-08-18T16:07:32;10.23;;;4.32;;
23888;SDS011;12125;40.102;18.326;2022-08-18T16:10:00;9.52;;;3.92;;
23888;SDS011;12125;40.102;18.326;2022-08-18T16:12:28;8.02;;;4.30;;
23888;SDS011;12125;40.102;18.326;2022-08-18T16:14:54;12.68;;;4.00;;
23888;SDS011;12125;40.102;18.326;2022-08-18T16:17:21;13.23;;;4.28;;
23888;SDS011;12125;40.102;18.326;2022-08-18T16:19:48;10.80;;;4.47;;
23888;SDS011;12125;40.102;18.326;2022-08-18T16:22:15;15.13;;;4.53;;
23888;SDS011;12125;40.102;18.326;2022-08-18T16:24:42;12.60;;;4.50;;
23888;SDS011;12125;40.102;18.326;2022-08-18T16:27:10;11.88;;;4.50;;
23888;SDS011;12125;40.102;18.326;2022-08-18T16:29:37;10.63;;;4.95;;
23888;SDS011;12125;40.102;18.326;2022-08-18T16:32:05;11.35;;;4.28;;
23888;SDS011;12125;40.102;18.326;2022-08-18T16:34:32;16.50;;;5.00;;
23888;SDS011;12125;40.102;18.326;2022-08-18T16:36:59;8.57;;;4.35;;